Time;durP1;ratioP1;P1;durP2;ratioP2;P2;SDS_P1;SDS_P2;PMS_P1;PMS_P2;Temp;Humidity;BMP_temperature;BMP_pressure;BME280_temperature;BME280_humidity;BME280_pressure;Samples;Min_cycle;Max_cycle;Signal;HPM_P1;HPM_P2
2023/04/06 00:01:24;;;;;;;7.87;3.47;;;6.10;75.10;;;;;;4989716;28;20203;-64
2023/04/06 00:03:51;;;;;;;6.30;3.13;;;6.10;75.40;;;;;;4990193;28;20308;-64
2023/04/06 00:06:18;;;;;;;6.50;3.20;;;6.20;76.30;;;;;;5004207;28;20213;-64
2023/04/06 00:08:45;;;;;;;5.97;2.50;;;6.10;75.50;;;;;;4998512;28;20301;-64
2023/04/06 00:11:12;;;;;;;4.20;2.50;;;6.10;75.50;;;;;;5003710;28;20210;-65
2023/04/06 00:13:39;;;;;;;3.73;2.10;;;6.10;75.60;;;;;;4990801;28;20203;-65
2023/04/06 00:16:09;;;;;;;4.03;2.13;;;6.10;75.60;;;;;;4990768;28;20197;-64
2023/04/06 00:18:37;;;;;;;5.10;2.67;;;6.10;75.90;;;;;;4990147;28;20208;-65
2023/04/06 00:21:05;;;;;;;6.13;2.30;;;6.10;75.70;;;;;;4989254;28;20196;-65
2023/04/06 00:23:32;;;;;;;4.47;2.47;;;6.10;75.70;;;;;;4990045;28;20202;-65
2023/04/06 00:26:00;;;;;;;2.63;1.87;;;6.10;75.80;;;;;;4992765;28;20203;-65
2023/04/06 00:28:28;;;;;;;4.33;2.60;;;6.10;75.70;;;;;;4992509;28;20662;-65
2023/04/06 00:30:55;;;;;;;3.23;2.70;;;6.10;75.90;;;;;;4989735;28;20194;-65
2023/04/06 00:33:23;;;;;;;3.23;2.57;;;6.10;75.90;;;;;;4989815;28;20211;-65
2023/04/06 00:35:52;;;;;;;7.20;3.13;;;6.10;75.90;;;;;;4989358;28;20655;-64
2023/04/06 00:38:19;;;;;;;5.33;2.90;;;6.10;75.90;;;;;;4990126;28;20212;-66
2023/04/06 00:40:49;;;;;;;5.27;3.20;;;6.00;75.90;;;;;;4987124;28;20231;-66
2023/04/06 00:43:16;;;;;;;6.23;3.70;;;6.00;76.00;;;;;;4989741;28;20211;-66
2023/04/06 00:45:43;;;;;;;4.87;2.80;;;6.00;76.00;;;;;;4990777;28;20668;-66
2023/04/06 00:48:11;;;;;;;4.30;2.77;;;6.00;76.10;;;;;;4990531;28;20668;-65
2023/04/06 00:50:38;;;;;;;3.90;2.30;;;6.00;76.10;;;;;;4989798;28;20201;-65
2023/04/06 00:53:07;;;;;;;4.23;2.60;;;5.90;76.10;;;;;;4988347;28;20295;-63
2023/04/06 00:55:35;;;;;;;5.03;2.50;;;5.90;76.20;;;;;;5004216;28;20206;-66
2023/04/06 00:58:03;;;;;;;10.20;3.03;;;5.90;76.30;;;;;;4989918;28;20693;-65
2023/04/06 01:00:36;;;;;;;4.63;3.17;;;5.90;76.30;;;;;;5004438;28;20292;-65
2023/04/06 01:03:05;;;;;;;3.60;2.20;;;5.90;76.30;;;;;;4985089;28;20244;-63
2023/04/06 01:05:40;;;;;;;2.37;2.10;;;6.00;76.40;;;;;;5004269;28;20299;-65
2023/04/06 01:08:13;;;;;;;3.17;1.80;;;6.00;76.50;;;;;;5005511;28;20211;-66
2023/04/06 01:10:40;;;;;;;2.43;1.97;;;5.90;76.30;;;;;;5003737;28;20207;-66
2023/04/06 01:13:17;;;;;;;4.73;2.03;;;5.90;76.30;;;;;;4978106;28;20204;-65
2023/04/06 01:15:50;;;;;;;2.23;1.93;;;5.90;76.40;;;;;;4988820;28;20212;-64
2023/04/06 01:18:27;;;;;;;3.97;1.83;;;5.90;76.50;;;;;;4987308;28;20252;-64
2023/04/06 01:21:02;;;;;;;2.07;1.70;;;5.90;76.50;;;;;;4988075;28;20202;-65
2023/04/06 01:23:31;;;;;;;2.10;1.83;;;5.80;76.50;;;;;;4988924;28;20548;-64
2023/04/06 01:25:58;;;;;;;2.33;1.80;;;5.80;76.60;;;;;;4988509;28;20687;-64
2023/04/06 01:28:26;;;;;;;2.90;1.80;;;5.80;76.60;;;;;;4989301;28;20232;-64
2023/04/06 01:31:08;;;;;;;3.03;1.50;;;5.80;76.60;;;;;;5005348;28;21190;-65
2023/04/06 01:33:44;;;;;;;1.70;1.60;;;5.80;76.60;;;;;;4989034;28;20686;-64
2023/04/06 01:36:15;;;;;;;2.60;1.97;;;5.80;76.60;;;;;;5005317;28;20209;-64
2023/04/06 01:38:45;;;;;;;2.07;1.77;;;5.80;76.70;;;;;;4999271;28;20245;-65
2023/04/06 01:41:12;;;;;;;4.50;1.60;;;5.80;76.80;;;;;;4989350;28;20195;-65
2023/04/06 01:43:48;;;;;;;2.53;1.87;;;5.80;76.70;;;;;;4989288;28;20268;-64
2023/04/06 01:46:16;;;;;;;2.70;2.10;;;5.80;76.70;;;;;;4990655;28;20246;-64
2023/04/06 01:48:45;;;;;;;2.83;1.87;;;5.80;76.70;;;;;;5004479;28;20211;-64
2023/04/06 01:51:20;;;;;;;2.60;2.03;;;5.80;76.70;;;;;;4989765;28;20198;-64
2023/04/06 01:54:01;;;;;;;3.90;2.70;;;5.80;76.70;;;;;;5004792;28;20306;-65
2023/04/06 01:56:52;;;;;;;3.20;2.30;;;5.80;76.80;;;;;;4979458;28;20741;-65
2023/04/06 01:59:41;;;;;;;3.50;2.47;;;5.80;76.80;;;;;;4988151;28;20227;-64
2023/04/06 02:02:16;;;;;;;3.67;2.57;;;5.80;76.80;;;;;;5005306;28;20240;-64
2023/04/06 02:04:52;;;;;;;4.63;2.77;;;5.80;76.80;;;;;;4986413;28;20232;-64
2023/04/06 02:07:20;;;;;;;2.97;2.67;;;5.80;76.90;;;;;;5003726;28;20208;-64
2023/04/06 02:09:49;;;;;;;5.83;3.10;;;5.80;76.90;;;;;;4976325;28;20252;-64
2023/04/06 02:12:24;;;;;;;7.63;3.53;;;5.80;77.00;;;;;;4985979;28;20576;-64
2023/04/06 02:14:51;;;;;;;3.57;3.27;;;5.80;77.20;;;;;;4989306;28;20677;-64
2023/04/06 02:17:18;;;;;;;4.53;3.37;;;5.80;77.20;;;;;;4987300;28;20201;-66
2023/04/06 02:19:45;;;;;;;4.97;3.00;;;5.80;77.20;;;;;;5003654;28;20235;-64
2023/04/06 02:22:13;;;;;;;4.20;3.00;;;5.70;77.10;;;;;;4987369;28;21535;-64
2023/04/06 02:24:40;;;;;;;3.87;2.53;;;5.80;77.30;;;;;;4988035;28;20271;-64
2023/04/06 02:27:08;;;;;;;5.60;2.90;;;5.70;77.30;;;;;;4988810;28;20206;-64
2023/04/06 02:29:35;;;;;;;3.40;2.70;;;5.70;77.30;;;;;;4987274;28;20208;-64
2023/04/06 02:32:04;;;;;;;3.00;2.50;;;5.70;77.40;;;;;;5001834;28;20217;-65
2023/04/06 02:34:33;;;;;;;5.13;3.00;;;5.70;77.50;;;;;;4984695;28;20291;-66
2023/04/06 02:37:00;;;;;;;2.83;2.20;;;5.60;77.40;;;;;;4991389;28;20202;-65
2023/04/06 02:39:27;;;;;;;3.93;2.67;;;5.70;77.60;;;;;;4984506;28;20208;-65
2023/04/06 02:41:56;;;;;;;4.23;2.50;;;5.60;77.50;;;;;;4990762;28;20208;-66
2023/04/06 02:44:26;;;;;;;4.67;2.23;;;5.60;77.60;;;;;;4992530;28;20192;-65
2023/04/06 02:46:53;;;;;;;4.27;2.37;;;5.60;77.60;;;;;;4991331;28;20204;-64
2023/04/06 02:49:22;;;;;;;3.70;2.70;;;5.60;77.70;;;;;;5000228;28;20192;-64
2023/04/06 02:51:50;;;;;;;2.97;2.67;;;5.60;77.80;;;;;;5007023;28;20208;-64
2023/04/06 02:54:27;;;;;;;6.83;3.10;;;5.50;77.70;;;;;;4986018;28;20334;-64
2023/04/06 02:56:54;;;;;;;4.57;2.57;;;5.50;77.80;;;;;;5006811;28;20255;-64
2023/04/06 02:59:23;;;;;;;3.20;2.87;;;5.50;77.90;;;;;;5007107;28;20302;-64
2023/04/06 03:02:02;;;;;;;4.40;2.90;;;5.40;77.90;;;;;;5007014;28;20228;-64
2023/04/06 03:04:30;;;;;;;3.60;2.63;;;5.40;77.90;;;;;;4989928;28;20200;-65
2023/04/06 03:07:00;;;;;;;4.23;2.73;;;5.40;78.00;;;;;;4998721;28;20227;-64
2023/04/06 03:09:37;;;;;;;5.23;2.97;;;5.40;78.20;;;;;;5006576;28;20204;-64
2023/04/06 03:12:04;;;;;;;5.00;3.03;;;5.40;79.00;;;;;;4991265;28;20220;-64
2023/04/06 03:14:40;;;;;;;2.83;2.37;;;5.40;78.30;;;;;;4991048;28;20197;-64
2023/04/06 03:17:08;;;;;;;4.50;2.37;;;5.40;78.30;;;;;;4991312;28;20201;-64
2023/04/06 03:19:36;;;;;;;6.00;2.70;;;5.40;78.50;;;;;;4991645;28;20548;-64
2023/04/06 03:22:04;;;;;;;4.10;2.70;;;5.40;78.50;;;;;;5006372;28;20259;-64
2023/04/06 03:24:31;;;;;;;3.97;2.97;;;5.30;78.50;;;;;;4991888;28;20196;-64
2023/04/06 03:27:00;;;;;;;5.33;3.40;;;5.30;78.60;;;;;;5006754;28;20306;-64
2023/04/06 03:29:28;;;;;;;4.13;2.70;;;5.30;78.70;;;;;;5005553;28;20208;-65
2023/04/06 03:31:55;;;;;;;3.20;2.53;;;5.30;79.40;;;;;;5002507;28;20239;-64
2023/04/06 03:34:34;;;;;;;7.97;3.20;;;5.40;78.70;;;;;;4986390;28;20288;-64
2023/04/06 03:37:02;;;;;;;3.87;2.80;;;5.40;78.70;;;;;;5004260;28;20204;-64
2023/04/06 03:39:30;;;;;;;3.77;2.60;;;5.40;78.60;;;;;;4989920;28;20228;-64
2023/04/06 03:41:57;;;;;;;4.13;2.80;;;5.40;78.60;;;;;;4989968;28;20607;-64
2023/04/06 03:44:47;;;;;;;3.80;2.73;;;5.30;78.60;;;;;;4991228;28;20204;-64
2023/04/06 03:47:17;;;;;;;6.93;2.93;;;5.30;78.60;;;;;;5007452;28;20223;-64
2023/04/06 03:49:46;;;;;;;4.93;3.10;;;5.30;78.90;;;;;;4989117;28;20514;-64
2023/04/06 03:52:15;;;;;;;4.70;2.67;;;5.20;78.60;;;;;;5005617;28;20206;-64
2023/04/06 03:54:42;;;;;;;6.23;2.90;;;5.30;78.90;;;;;;4991207;28;20204;-64
2023/04/06 03:57:11;;;;;;;3.67;2.60;;;5.20;78.70;;;;;;4989368;28;20208;-64
2023/04/06 03:59:38;;;;;;;7.90;3.33;;;5.20;78.70;;;;;;4990828;28;20247;-64
2023/04/06 04:02:05;;;;;;;6.13;3.33;;;5.20;78.80;;;;;;4991489;28;20204;-64
2023/04/06 04:04:32;;;;;;;5.03;2.83;;;5.20;78.80;;;;;;5005394;28;20548;-64
2023/04/06 04:07:01;;;;;;;3.53;2.60;;;5.20;78.80;;;;;;4990389;28;20619;-64
2023/04/06 04:09:28;;;;;;;5.07;3.00;;;5.20;78.90;;;;;;4989487;28;20208;-64
2023/04/06 04:11:55;;;;;;;4.37;2.67;;;5.20;78.90;;;;;;4989967;28;20624;-64
2023/04/06 04:14:22;;;;;;;4.80;3.03;;;5.20;78.90;;;;;;5005906;28;20227;-65
2023/04/06 04:16:49;;;;;;;3.43;2.47;;;5.10;78.90;;;;;;4991328;28;20196;-65
2023/04/06 04:19:16;;;;;;;3.50;2.70;;;5.20;79.10;;;;;;4989886;28;20211;-65
2023/04/06 04:21:45;;;;;;;2.90;2.40;;;5.10;79.00;;;;;;4989487;28;20266;-65
2023/04/06 04:24:15;;;;;;;5.30;3.23;;;5.10;79.10;;;;;;4989169;28;20214;-65
2023/04/06 04:26:43;;;;;;;4.73;2.90;;;5.10;79.10;;;;;;5005796;28;20578;-65
2023/04/06 04:29:10;;;;;;;4.27;2.73;;;5.20;79.10;;;;;;4989378;28;20678;-65
2023/04/06 04:31:38;;;;;;;5.57;3.10;;;5.20;79.00;;;;;;5000701;28;20300;-65
2023/04/06 04:34:12;;;;;;;3.33;2.30;;;5.20;79.00;;;;;;5004691;28;20195;-65
2023/04/06 04:36:41;;;;;;;5.90;3.00;;;5.20;79.00;;;;;;4989253;28;20207;-65
2023/04/06 04:39:10;;;;;;;3.70;2.57;;;5.20;79.70;;;;;;5005558;28;20274;-65
2023/04/06 04:41:43;;;;;;;6.70;3.60;;;5.20;78.90;;;;;;4988685;28;20208;-65
2023/04/06 04:44:13;;;;;;;4.73;3.17;;;5.20;78.90;;;;;;5005914;28;20212;-65
2023/04/06 04:46:41;;;;;;;5.70;2.80;;;5.20;78.90;;;;;;5005969;28;20636;-65
2023/04/06 04:49:09;;;;;;;5.97;2.97;;;5.20;79.00;;;;;;5004735;28;20207;-65
2023/04/06 04:51:36;;;;;;;4.67;2.73;;;5.20;79.00;;;;;;4990203;28;20254;-65
2023/04/06 04:54:10;;;;;;;5.07;2.93;;;5.20;79.00;;;;;;5005086;28;20568;-65
2023/04/06 04:56:37;;;;;;;4.43;2.80;;;5.20;79.00;;;;;;4988075;28;20568;-65
2023/04/06 04:59:16;;;;;;;3.80;3.10;;;5.20;78.90;;;;;;4985517;28;20679;-65
2023/04/06 05:01:50;;;;;;;2.73;2.30;;;5.20;78.90;;;;;;5006649;28;20231;-65
2023/04/06 05:04:17;;;;;;;4.43;2.60;;;5.20;78.90;;;;;;4988246;28;20606;-65
2023/04/06 05:06:44;;;;;;;5.03;3.00;;;5.30;79.00;;;;;;4994947;28;20286;-65
2023/04/06 05:09:12;;;;;;;4.63;2.83;;;5.30;79.00;;;;;;4989108;28;20199;-65
2023/04/06 05:11:42;;;;;;;4.20;3.03;;;5.30;79.00;;;;;;4984857;28;20192;-65
2023/04/06 05:14:10;;;;;;;5.73;3.10;;;5.30;79.00;;;;;;4985788;28;20207;-65
2023/04/06 05:16:39;;;;;;;4.93;2.90;;;5.30;79.00;;;;;;5005850;28;20196;-65
2023/04/06 05:19:07;;;;;;;5.33;2.73;;;5.40;79.00;;;;;;4986210;28;20191;-66
2023/04/06 05:21:40;;;;;;;5.13;3.00;;;5.40;79.00;;;;;;4988278;28;20565;-63
2023/04/06 05:24:08;;;;;;;3.27;2.43;;;5.40;79.10;;;;;;4988771;28;20805;-65
2023/04/06 05:26:36;;;;;;;8.03;3.23;;;5.40;79.00;;;;;;5004943;28;20191;-64
2023/04/06 05:29:11;;;;;;;6.77;2.90;;;5.40;79.00;;;;;;4985825;28;20200;-63
2023/04/06 05:31:40;;;;;;;5.97;3.10;;;5.50;79.10;;;;;;4982683;28;20192;-64
2023/04/06 05:34:09;;;;;;;6.10;3.17;;;5.50;79.10;;;;;;5004502;28;20201;-64
2023/04/06 05:36:37;;;;;;;13.63;3.40;;;5.50;79.20;;;;;;4988604;28;20216;-65
2023/04/06 05:39:12;;;;;;;5.73;3.07;;;5.50;79.30;;;;;;5004277;28;20211;-65
2023/04/06 05:41:46;;;;;;;8.20;3.23;;;5.50;79.20;;;;;;4988128;28;20223;-64
2023/04/06 05:44:14;;;;;;;6.57;2.87;;;5.60;79.40;;;;;;5005142;28;20213;-64
2023/04/06 05:46:46;;;;;;;10.23;3.30;;;5.60;79.30;;;;;;4988981;28;20196;-64
2023/04/06 05:49:16;;;;;;;6.03;3.27;;;5.70;79.50;;;;;;5003843;28;20206;-65
2023/04/06 05:51:44;;;;;;;4.30;2.93;;;5.70;79.50;;;;;;4987248;28;20200;-64
2023/04/06 05:54:11;;;;;;;5.80;3.10;;;5.70;79.50;;;;;;5003864;28;20209;-65
2023/04/06 05:56:39;;;;;;;4.47;3.07;;;5.80;79.50;;;;;;5004024;28;20215;-64
2023/04/06 05:59:10;;;;;;;4.03;2.50;;;5.90;80.40;;;;;;4988072;28;20206;-65
2023/04/06 06:01:37;;;;;;;6.10;2.97;;;5.90;79.70;;;;;;4988016;28;20641;-65
2023/04/06 06:04:07;;;;;;;5.43;3.00;;;6.10;79.90;;;;;;4992930;28;20232;-65
2023/04/06 06:06:37;;;;;;;5.90;2.57;;;6.20;79.90;;;;;;4986137;28;20327;-64
2023/04/06 06:09:16;;;;;;;10.50;4.10;;;6.20;79.80;;;;;;4991002;28;20228;-64
2023/04/06 06:11:57;;;;;;;17.47;5.20;;;6.40;80.00;;;;;;4988123;28;20746;-65
2023/04/06 06:14:28;;;;;;;14.80;5.73;;;6.50;79.90;;;;;;4988364;28;20216;-64
2023/04/06 06:16:55;;;;;;;13.50;5.77;;;6.50;79.50;;;;;;4992536;28;20657;-64
2023/04/06 06:19:24;;;;;;;16.73;6.00;;;6.60;79.40;;;;;;4987902;28;20645;-65
2023/04/06 06:21:55;;;;;;;7.33;4.10;;;6.70;79.10;;;;;;4991232;28;20228;-65
2023/04/06 06:24:22;;;;;;;5.83;3.57;;;6.80;78.80;;;;;;4985987;28;21634;-65
2023/04/06 06:26:49;;;;;;;4.43;3.40;;;6.80;78.50;;;;;;4998560;28;20201;-65
2023/04/06 06:29:18;;;;;;;4.97;2.67;;;6.90;78.10;;;;;;5006406;28;20218;-66
2023/04/06 06:31:45;;;;;;;7.63;3.27;;;7.00;77.70;;;;;;5006728;28;20706;-66
2023/04/06 06:34:15;;;;;;;4.50;2.87;;;7.00;77.00;;;;;;5005434;28;20291;-65
2023/04/06 06:36:45;;;;;;;6.37;2.93;;;7.10;76.60;;;;;;4991155;28;20672;-64
2023/04/06 06:39:13;;;;;;;5.30;2.80;;;7.10;76.50;;;;;;5005346;28;20198;-65
2023/04/06 06:41:40;;;;;;;9.60;3.30;;;7.10;76.30;;;;;;5005133;28;20206;-64
2023/04/06 06:44:08;;;;;;;11.23;3.43;;;7.10;76.10;;;;;;4991175;28;20214;-64
2023/04/06 06:46:35;;;;;;;3.90;2.73;;;7.20;76.10;;;;;;5004592;28;20705;-64
2023/04/06 06:49:03;;;;;;;8.97;3.23;;;7.20;76.10;;;;;;4990919;28;20288;-64
2023/04/06 06:51:31;;;;;;;6.63;3.60;;;7.30;76.00;;;;;;5006333;28;20237;-64
2023/04/06 06:53:59;;;;;;;8.27;3.60;;;7.30;75.80;;;;;;5002330;28;20290;-64
2023/04/06 06:56:27;;;;;;;11.63;4.47;;;7.40;75.70;;;;;;4989477;28;20262;-64
2023/04/06 06:58:55;;;;;;;5.90;3.47;;;7.50;75.60;;;;;;4989971;28;20307;-65
2023/04/06 07:01:22;;;;;;;10.57;3.50;;;7.60;75.50;;;;;;4990580;28;20211;-65
2023/04/06 07:03:49;;;;;;;9.37;3.50;;;7.70;75.60;;;;;;5005465;28;20239;-64
2023/04/06 07:06:16;;;;;;;8.43;3.10;;;7.70;75.70;;;;;;4998821;28;20198;-65
2023/04/06 07:08:44;;;;;;;5.70;2.73;;;7.80;75.90;;;;;;4990455;28;20204;-64
2023/04/06 07:11:12;;;;;;;7.27;3.27;;;7.90;76.00;;;;;;4988700;28;20211;-65
2023/04/06 07:13:39;;;;;;;4.63;3.10;;;8.00;76.20;;;;;;4990901;28;20261;-65
2023/04/06 07:16:06;;;;;;;14.33;3.53;;;8.00;76.40;;;;;;4990069;28;20207;-64
2023/04/06 07:18:33;;;;;;;7.13;2.93;;;8.10;76.40;;;;;;4989052;28;20590;-64
2023/04/06 07:21:01;;;;;;;10.80;2.90;;;8.20;76.40;;;;;;4990357;28;20207;-63
2023/04/06 07:23:28;;;;;;;2.90;2.30;;;8.30;76.40;;;;;;4990385;28;20239;-64
2023/04/06 07:25:55;;;;;;;3.23;2.00;;;8.40;76.30;;;;;;4987090;28;20319;-65
2023/04/06 07:28:23;;;;;;;9.40;3.70;;;8.40;76.20;;;;;;5002683;28;20659;-64
2023/04/06 07:30:50;;;;;;;2.93;2.50;;;8.40;76.40;;;;;;4990767;28;20634;-64
2023/04/06 07:33:18;;;;;;;8.20;3.30;;;8.40;76.40;;;;;;5005264;28;20678;-64
2023/04/06 07:35:45;;;;;;;2.93;2.30;;;8.50;76.70;;;;;;4986051;28;20856;-64
2023/04/06 07:38:13;;;;;;;4.43;2.50;;;8.60;76.90;;;;;;4989327;28;20255;-64
2023/04/06 07:40:41;;;;;;;3.00;2.20;;;8.70;77.10;;;;;;5002453;28;20204;-64
2023/04/06 07:43:08;;;;;;;2.63;2.20;;;8.70;76.90;;;;;;4989308;28;20208;-64
2023/04/06 07:45:37;;;;;;;2.37;2.17;;;8.80;76.90;;;;;;5005586;28;20215;-64
2023/04/06 07:48:05;;;;;;;3.10;2.30;;;8.80;76.80;;;;;;4987205;28;20212;-65
2023/04/06 07:50:33;;;;;;;2.47;1.80;;;8.80;77.00;;;;;;4987944;28;20332;-65
2023/04/06 07:53:00;;;;;;;5.53;2.53;;;8.90;77.20;;;;;;5004541;28;20195;-65
2023/04/06 07:55:28;;;;;;;4.67;2.73;;;9.00;77.40;;;;;;5004294;28;20324;-64
2023/04/06 07:57:55;;;;;;;3.57;2.30;;;9.10;77.30;;;;;;4987069;28;20269;-64
2023/04/06 08:00:23;;;;;;;3.00;2.27;;;9.20;77.00;;;;;;4988715;28;20191;-64
2023/04/06 08:02:51;;;;;;;3.10;2.20;;;9.30;76.90;;;;;;4987000;28;20303;-63
2023/04/06 08:05:19;;;;;;;1.73;1.60;;;9.40;77.10;;;;;;4988246;28;20239;-64
2023/04/06 08:07:46;;;;;;;2.23;1.50;;;9.50;76.90;;;;;;4989771;28;20302;-64
2023/04/06 08:10:13;;;;;;;1.60;1.50;;;9.50;76.70;;;;;;4986739;28;20198;-65
2023/04/06 08:12:40;;;;;;;1.53;1.43;;;9.50;76.50;;;;;;4990005;28;20278;-65
2023/04/06 08:15:07;;;;;;;1.20;1.10;;;9.60;76.30;;;;;;4991246;28;20541;-65
2023/04/06 08:17:35;;;;;;;3.90;1.27;;;9.60;76.20;;;;;;4987105;28;20200;-65
2023/04/06 08:20:04;;;;;;;0.97;0.90;;;9.60;75.90;;;;;;4989305;28;20206;-65
2023/04/06 08:22:31;;;;;;;0.83;0.83;;;9.70;75.90;;;;;;4988963;28;20220;-65
2023/04/06 08:24:58;;;;;;;1.70;1.20;;;9.80;75.80;;;;;;4983065;28;20561;-65
2023/04/06 08:27:25;;;;;;;1.30;1.13;;;9.90;75.40;;;;;;4989103;28;20287;-65
2023/04/06 08:29:52;;;;;;;4.57;1.13;;;10.00;73.70;;;;;;4988290;28;20215;-65
2023/04/06 08:32:19;;;;;;;1.20;1.10;;;10.20;73.50;;;;;;4985501;28;20226;-65
2023/04/06 08:34:46;;;;;;;1.27;1.17;;;10.30;73.30;;;;;;4982279;28;20282;-65
2023/04/06 08:37:15;;;;;;;1.80;1.17;;;10.40;72.90;;;;;;4980884;28;20200;-65
2023/04/06 08:39:42;;;;;;;2.17;1.40;;;10.40;72.20;;;;;;4985382;28;20180;-65
2023/04/06 08:42:17;;;;;;;2.40;1.20;;;10.50;72.30;;;;;;4988684;28;20222;-65
2023/04/06 08:44:45;;;;;;;1.23;1.03;;;10.70;71.90;;;;;;4988152;28;20206;-65
2023/04/06 08:47:12;;;;;;;1.30;1.00;;;10.80;71.70;;;;;;4986449;28;20274;-65
2023/04/06 08:49:40;;;;;;;1.47;1.20;;;10.80;71.30;;;;;;4988071;28;20254;-65
2023/04/06 08:52:08;;;;;;;3.33;1.00;;;10.90;71.00;;;;;;4986371;28;20677;-62
2023/04/06 08:54:36;;;;;;;1.73;0.80;;;11.00;70.70;;;;;;4986870;28;20216;-62
2023/04/06 08:57:05;;;;;;;2.30;0.93;;;11.00;70.30;;;;;;4988200;28;20572;-62
2023/04/06 08:59:32;;;;;;;1.13;1.00;;;11.10;70.10;;;;;;4987247;28;20218;-62
2023/04/06 09:02:02;;;;;;;0.70;0.70;;;11.10;69.70;;;;;;4986627;28;20219;-62
2023/04/06 09:04:32;;;;;;;0.90;0.70;;;11.20;69.60;;;;;;4951799;28;20724;-62
2023/04/06 09:06:59;;;;;;;0.80;0.80;;;11.20;69.40;;;;;;4948736;28;20206;-62
2023/04/06 09:09:27;;;;;;;0.87;0.80;;;11.20;68.60;;;;;;4947301;28;20665;-63
2023/04/06 09:11:55;;;;;;;5.27;1.03;;;11.30;68.50;;;;;;4953344;28;20216;-62
2023/04/06 09:14:36;;;;;;;1.50;0.90;;;11.30;67.90;;;;;;4949440;28;20616;-62
2023/04/06 09:17:03;;;;;;;1.73;1.23;;;11.20;67.80;;;;;;4948927;28;20623;-62
2023/04/06 09:19:30;;;;;;;1.43;1.33;;;11.30;67.50;;;;;;4948590;28;20205;-62
2023/04/06 09:22:03;;;;;;;2.63;1.43;;;11.30;67.30;;;;;;4946512;28;20269;-63
2023/04/06 09:24:41;;;;;;;1.27;1.10;;;11.30;67.10;;;;;;4947297;28;20190;-62
2023/04/06 09:27:09;;;;;;;0.90;0.90;;;11.40;67.20;;;;;;4947525;28;20196;-62
2023/04/06 09:29:37;;;;;;;4.70;1.20;;;11.60;66.90;;;;;;4941555;28;20532;-63
2023/04/06 09:32:05;;;;;;;1.67;0.87;;;11.70;66.60;;;;;;4948450;28;20197;-63
2023/04/06 09:34:32;;;;;;;1.47;1.37;;;11.80;66.20;;;;;;4944590;29;20193;-62
2023/04/06 09:36:59;;;;;;;2.23;1.73;;;11.80;65.40;;;;;;4946751;28;20304;-62
2023/04/06 09:39:27;;;;;;;1.10;1.00;;;11.70;64.60;;;;;;4948431;28;20202;-62
2023/04/06 09:41:55;;;;;;;1.00;0.90;;;11.60;64.80;;;;;;4949744;28;20671;-62
2023/04/06 09:44:24;;;;;;;1.07;0.80;;;11.60;65.00;;;;;;4951122;28;20332;-62
2023/04/06 09:46:54;;;;;;;0.80;0.80;;;11.60;65.20;;;;;;4953193;28;20576;-62
2023/04/06 09:49:21;;;;;;;0.73;0.70;;;11.60;65.10;;;;;;4947268;29;20259;-62
2023/04/06 09:51:56;;;;;;;2.23;1.10;;;11.60;65.20;;;;;;4946038;29;20278;-62
2023/04/06 09:54:26;;;;;;;5.87;1.20;;;11.50;65.00;;;;;;4950941;29;20198;-62
2023/04/06 09:57:12;;;;;;;2.90;1.13;;;11.30;65.20;;;;;;4951912;28;20274;-62
2023/04/06 09:59:55;;;;;;;4.60;0.90;;;11.30;65.40;;;;;;4949761;29;20213;-62
2023/04/06 10:02:33;;;;;;;5.20;1.20;;;11.20;65.20;;;;;;4954194;28;20230;-62
2023/04/06 10:05:06;;;;;;;3.83;1.27;;;11.20;65.20;;;;;;4986945;28;20714;-62
2023/04/06 10:07:34;;;;;;;0.83;0.80;;;11.10;65.50;;;;;;4991914;28;20342;-62
2023/04/06 10:10:04;;;;;;;1.30;0.60;;;11.10;65.50;;;;;;4991814;28;20192;-62
2023/04/06 10:12:31;;;;;;;1.03;0.70;;;11.10;65.70;;;;;;4987507;28;20256;-62
2023/04/06 10:15:00;;;;;;;0.80;0.77;;;11.10;65.90;;;;;;4992301;28;20194;-62
2023/04/06 10:17:27;;;;;;;1.03;0.93;;;11.20;65.70;;;;;;4992370;28;20664;-62
2023/04/06 10:20:00;;;;;;;1.20;0.83;;;11.20;65.70;;;;;;4987557;28;20193;-63
2023/04/06 10:22:33;;;;;;;0.80;0.70;;;11.30;65.60;;;;;;4991044;28;20261;-62
2023/04/06 10:25:00;;;;;;;1.37;0.70;;;11.40;65.40;;;;;;4991292;28;20196;-62
2023/04/06 10:27:31;;;;;;;0.70;0.70;;;11.40;65.30;;;;;;4987947;28;20652;-62
2023/04/06 10:30:05;;;;;;;1.00;0.90;;;11.50;64.50;;;;;;4985278;28;20273;-62
2023/04/06 10:32:37;;;;;;;0.63;0.63;;;11.60;64.40;;;;;;5001971;28;20204;-64
2023/04/06 10:35:12;;;;;;;2.47;0.97;;;11.70;64.60;;;;;;4988191;28;20627;-61
2023/04/06 10:37:51;;;;;;;3.67;0.77;;;11.80;65.30;;;;;;4990981;28;20554;-61
2023/04/06 10:40:24;;;;;;;0.50;0.50;;;11.80;64.90;;;;;;4988715;28;20195;-62
2023/04/06 10:42:52;;;;;;;1.30;0.77;;;11.80;64.90;;;;;;4988721;28;20207;-61
2023/04/06 10:45:26;;;;;;;2.60;0.60;;;11.70;64.50;;;;;;4990742;28;20258;-62
2023/04/06 10:47:54;;;;;;;2.77;0.70;;;11.70;64.50;;;;;;4987075;28;20192;-62
2023/04/06 10:50:21;;;;;;;0.50;0.50;;;11.70;64.60;;;;;;4989710;28;20203;-62
2023/04/06 10:53:00;;;;;;;0.50;0.50;;;11.70;64.60;;;;;;4990106;28;20748;-62
2023/04/06 10:55:27;;;;;;;3.80;1.00;;;11.80;65.40;;;;;;4992109;28;20195;-61
2023/04/06 10:57:54;;;;;;;0.80;0.80;;;11.70;63.50;;;;;;4989084;28;20205;-61
2023/04/06 11:00:22;;;;;;;1.07;1.00;;;11.60;63.70;;;;;;4991416;28;20199;-62
2023/04/06 11:02:50;;;;;;;1.87;0.70;;;11.50;63.40;;;;;;4986942;28;20239;-62
2023/04/06 11:05:17;;;;;;;0.60;0.60;;;11.50;64.00;;;;;;4989095;28;20194;-62
2023/04/06 11:07:45;;;;;;;5.20;0.90;;;11.50;63.90;;;;;;4987966;28;20250;-61
2023/04/06 11:10:12;;;;;;;3.07;0.60;;;11.60;63.80;;;;;;4986248;28;20247;-61
2023/04/06 11:12:39;;;;;;;0.50;0.50;;;11.70;63.60;;;;;;4989166;28;20227;-62
2023/04/06 11:15:07;;;;;;;1.90;0.67;;;11.70;63.60;;;;;;4990567;28;20296;-62
2023/04/06 11:17:36;;;;;;;4.03;0.90;;;11.70;63.60;;;;;;4987971;28;20198;-62
2023/04/06 11:20:11;;;;;;;3.23;0.80;;;11.60;63.20;;;;;;4990140;28;20203;-61
2023/04/06 11:22:48;;;;;;;3.13;0.87;;;11.50;63.30;;;;;;4989738;28;20218;-62
2023/04/06 11:25:16;;;;;;;1.20;0.90;;;11.50;63.70;;;;;;4986790;28;20202;-62
2023/04/06 11:27:44;;;;;;;2.10;0.87;;;11.50;63.50;;;;;;4989849;28;20619;-62
2023/04/06 11:30:12;;;;;;;1.73;0.90;;;11.50;63.50;;;;;;4986028;28;20233;-62
2023/04/06 11:32:42;;;;;;;1.00;0.80;;;11.70;63.60;;;;;;4990217;28;20252;-61
2023/04/06 11:35:12;;;;;;;3.90;1.00;;;11.70;63.50;;;;;;4999691;28;20348;-62
2023/04/06 11:37:39;;;;;;;1.57;0.90;;;11.80;63.40;;;;;;4987787;28;20199;-62
2023/04/06 11:40:10;;;;;;;5.17;1.23;;;11.90;63.10;;;;;;4990245;28;20287;-61
2023/04/06 11:42:37;;;;;;;2.30;1.20;;;12.00;62.80;;;;;;4990425;28;20296;-62
2023/04/06 11:45:05;;;;;;;3.60;1.00;;;12.10;62.90;;;;;;4986928;28;20722;-61
2023/04/06 11:47:34;;;;;;;3.03;1.10;;;12.10;62.90;;;;;;4990846;28;20226;-61
2023/04/06 11:50:07;;;;;;;1.10;1.00;;;12.20;62.70;;;;;;4987161;28;20193;-61
2023/04/06 11:52:35;;;;;;;2.67;0.93;;;12.20;62.90;;;;;;4985321;28;20226;-61
2023/04/06 11:55:15;;;;;;;0.70;0.70;;;12.20;62.90;;;;;;4989571;28;20188;-61
2023/04/06 11:57:43;;;;;;;0.70;0.70;;;12.20;63.10;;;;;;4988921;28;20191;-61
2023/04/06 12:00:12;;;;;;;1.07;0.60;;;12.10;63.10;;;;;;4988491;28;20204;-61
2023/04/06 12:02:39;;;;;;;0.80;0.80;;;12.20;63.20;;;;;;4988846;28;20231;-62
2023/04/06 12:05:08;;;;;;;1.90;0.80;;;12.20;63.00;;;;;;4988220;28;20200;-61
2023/04/06 12:07:36;;;;;;;1.77;1.00;;;12.20;62.80;;;;;;4985797;28;20218;-61
2023/04/06 12:10:04;;;;;;;3.47;1.20;;;12.10;62.30;;;;;;4989122;28;20204;-62
2023/04/06 12:12:32;;;;;;;9.43;1.30;;;11.90;62.10;;;;;;4988958;28;20224;-62
2023/04/06 12:14:59;;;;;;;3.63;1.40;;;11.70;62.30;;;;;;4986243;28;20302;-62
2023/04/06 12:17:29;;;;;;;1.20;0.80;;;11.50;62.40;;;;;;4990225;28;20208;-62
2023/04/06 12:19:56;;;;;;;0.93;0.77;;;11.40;62.70;;;;;;4989080;28;20205;-61
2023/04/06 12:22:23;;;;;;;3.40;1.00;;;11.30;62.90;;;;;;4985166;28;20203;-61
2023/04/06 12:24:51;;;;;;;2.50;1.00;;;11.20;62.80;;;;;;4988497;28;20204;-61
2023/04/06 12:27:18;;;;;;;1.93;1.00;;;11.20;62.70;;;;;;4989159;28;20192;-61
2023/04/06 12:29:45;;;;;;;1.47;0.87;;;11.10;62.70;;;;;;4986696;28;20202;-62
2023/04/06 12:32:13;;;;;;;0.63;0.53;;;11.20;63.00;;;;;;4987944;28;20660;-61
2023/04/06 12:34:40;;;;;;;0.50;0.50;;;11.50;63.30;;;;;;4987074;28;20213;-62
2023/04/06 12:37:07;;;;;;;0.67;0.60;;;11.40;62.90;;;;;;4975180;28;20532;-61
2023/04/06 12:39:35;;;;;;;2.40;0.60;;;11.60;62.80;;;;;;5003125;28;20287;-61
2023/04/06 12:42:04;;;;;;;0.60;0.60;;;11.60;62.10;;;;;;4985570;28;20602;-62
2023/04/06 12:44:31;;;;;;;3.90;0.70;;;11.70;62.00;;;;;;4987980;28;20784;-62
2023/04/06 12:46:58;;;;;;;0.90;0.80;;;11.70;62.60;;;;;;4989354;28;20690;-61
2023/04/06 12:49:26;;;;;;;7.20;0.90;;;11.80;61.70;;;;;;4984536;28;20350;-61
2023/04/06 12:51:53;;;;;;;2.93;0.90;;;11.90;61.50;;;;;;4987743;28;20208;-61
2023/04/06 12:54:20;;;;;;;3.40;1.13;;;11.80;61.10;;;;;;4988918;28;20195;-62
2023/04/06 12:56:51;;;;;;;2.73;0.80;;;11.80;61.40;;;;;;4983941;28;20666;-62
2023/04/06 12:59:22;;;;;;;1.37;1.27;;;11.80;60.80;;;;;;4988413;28;20648;-62
2023/04/06 13:01:49;;;;;;;0.97;0.90;;;11.70;60.50;;;;;;4988710;28;20210;-61
2023/04/06 13:04:16;;;;;;;0.73;0.60;;;11.50;60.80;;;;;;4984836;28;20243;-61